Time,TemperatureF,DewpointF,PressureIn,WindDirection,WindDirectionDegrees,WindSpeedMPH,WindSpeedGustMPH,Humidity,HourlyPrecipIn,Conditions,Clouds,dailyrainin,SoftwareType,DateUTC
2013-06-12 00:00:00,50.8,47.0,29.96,NNE,32,0.0,3.0,85,0.00,,,0.00,weatherlink.com 1.10,2013-06-12 07:00:00,
2013-06-12 00:15:00,50.6,46.0,29.96,NNE,31,0.0,1.0,85,0.00,,,0.00,weatherlink.com 1.10,2013-06-12 07:15:00,
2013-06-12 00:30:00,50.3,46.0,29.96,NNE,22,0.0,2.0,85,0.00,,,0.00,weatherlink.com 1.10,2013-06-12 07:30:00,
2013-06-12 00:45:00,50.2,46.0,29.96,NNE,28,0.0,3.0,86,0.00,,,0.00,weatherlink.com 1.10,2013-06-12 07:45:00,
2013-06-12 01:00:00,50.2,46.0,29.96,NNE,30,0.0,0.0,86,0.00,,,0.00,weatherlink.com 1.10,2013-06-12 08:00:00,
2013-06-12 01:15:00,50.4,46.0,29.96,NNE,29,0.0,1.0,85,0.00,,,0.00,weatherlink.com 1.10,2013-06-12 08:15:00,
2013-06-12 01:31:00,50.8,46.0,29.95,NNE,32,0.0,0.0,84,0.00,,,0.00,weatherlink.com 1.10,2013-06-12 08:31:00,
2013-06-12 01:46:00,50.8,46.0,29.95,NNE,31,0.0,1.0,84,0.00,,,0.00,weatherlink.com 1.10,2013-06-12 08:46:00,
2013-06-12 02:01:00,50.4,46.0,29.95,NNE,30,0.0,1.0,85,0.00,,,0.00,weatherlink.com 1.10,2013-06-12 09:01:00,
2013-06-12 02:16:00,50.3,46.0,29.95,NNE,23,0.0,1.0,85,0.00,,,0.00,weatherlink.com 1.10,2013-06-12 09:16:00,
2013-06-12 02:31:00,50.1,46.0,29.95,NNE,24,0.0,3.0,84,0.00,,,0.00,weatherlink.com 1.10,2013-06-12 09:31:00,
2013-06-12 02:46:00,49.7,45.0,29.95,NNE,24,1.0,2.0,85,0.00,,,0.00,weatherlink.com 1.10,2013-06-12 09:46:00,
2013-06-12 03:01:00,49.4,45.0,29.95,NNE,19,0.0,3.0,86,0.00,,,0.00,weatherlink.com 1.10,2013-06-12 10:01:00,
2013-06-12 03:16:00,49.0,45.0,29.95,NNE,25,0.0,2.0,87,0.00,,,0.00,weatherlink.com 1.10,2013-06-12 10:16:00,
2013-06-12 03:31:00,48.5,45.0,29.95,NNE,28,0.0,2.0,88,0.00,,,0.00,weatherlink.com 1.10,2013-06-12 10:31:00,
2013-06-12 03:46:00,48.3,45.0,29.95,NNE,13,1.0,4.0,89,0.00,,,0.00,weatherlink.com 1.10,2013-06-12 10:46:00,
2013-06-12 04:01:00,48.3,45.0,29.95,NNE,14,0.0,4.0,89,0.00,,,0.00,weatherlink.com 1.10,2013-06-12 11:01:00,
2013-06-12 04:16:00,48.2,45.0,29.95,NNE,31,0.0,4.0,89,0.00,,,0.00,weatherlink.com 1.10,2013-06-12 11:16:00,
2013-06-12 04:31:00,48.1,45.0,29.95,NNE,32,0.0,4.0,89,0.00,,,0.00,weatherlink.com 1.10,2013-06-12 11:31:00,
2013-06-12 04:46:00,48.6,46.0,29.96,NNE,32,0.0,4.0,89,0.00,,,0.00,weatherlink.com 1.10,2013-06-12 11:46:00,
2013-06-12 05:01:00,48.9,45.0,29.96,NNE,29,0.0,5.0,87,0.00,,,0.00,weatherlink.com 1.10,2013-06-12 12:01:00,
2013-06-12 05:16:00,48.8,45.0,29.96,NE,39,2.0,4.0,87,0.00,,,0.00,weatherlink.com 1.10,2013-06-12 12:16:00,
2013-06-12 05:31:00,48.6,45.0,29.97,NE,52,0.0,3.0,87,0.00,,,0.00,weatherlink.com 1.10,2013-06-12 12:31:00,
2013-06-12 05:46:00,48.5,45.0,29.97,NNE,23,0.0,1.0,87,0.00,,,0.00,weatherlink.com 1.10,2013-06-12 12:46:00,
2013-06-12 06:01:00,48.3,45.0,29.98,NNE,28,0.0,1.0,88,0.00,,,0.00,weatherlink.com 1.10,2013-06-12 13:01:00,
2013-06-12 06:16:00,48.1,45.0,29.98,NNE,28,0.0,0.0,89,0.00,,,0.00,weatherlink.com 1.10,2013-06-12 13:16:00,
2013-06-12 06:31:00,47.9,45.0,29.98,NNE,28,0.0,0.0,89,0.00,,,0.00,weatherlink.com 1.10,2013-06-12 13:31:00,
2013-06-12 06:46:00,48.1,45.0,29.99,NNE,30,0.0,0.0,89,0.00,,,0.00,weatherlink.com 1.10,2013-06-12 13:46:00,
2013-06-12 07:01:00,48.5,46.0,29.99,NNE,30,0.0,1.0,89,0.00,,,0.00,weatherlink.com 1.10,2013-06-12 14:01:00,
2013-06-12 07:16:00,49.1,46.0,30.00,NNE,30,0.0,0.0,89,0.00,,,0.00,weatherlink.com 1.10,2013-06-12 14:16:00,
2013-06-12 07:31:00,50.4,47.0,30.00,NNE,30,0.0,1.0,88,0.00,,,0.00,weatherlink.com 1.10,2013-06-12 14:31:00,
2013-06-12 07:46:00,52.6,48.0,30.00,NNE,30,0.0,0.0,85,0.00,,,0.00,weatherlink.com 1.10,2013-06-12 14:46:00,
2013-06-12 08:01:00,55.4,50.0,30.00,NNE,30,0.0,0.0,82,0.00,,,0.00,weatherlink.com 1.10,2013-06-12 15:01:00,
2013-06-12 08:16:00,57.3,50.0,30.00,NNE,30,0.0,0.0,76,0.00,,,0.00,weatherlink.com 1.10,2013-06-12 15:16:00,
2013-06-12 08:31:00,58.2,50.0,30.01,WSW,253,0.0,1.0,74,0.00,,,0.00,weatherlink.com 1.10,2013-06-12 15:31:00,
2013-06-12 08:46:00,57.3,51.0,30.01,SE,134,0.0,2.0,78,0.00,,,0.00,weatherlink.com 1.10,2013-06-12 15:46:00,
2013-06-12 09:01:00,57.1,51.0,30.01,SSW,205,4.0,5.0,80,0.00,,,0.00,weatherlink.com 1.10,2013-06-12 16:01:00,
2013-06-12 09:16:00,58.1,52.0,30.01,SW,215,0.0,6.0,80,0.00,,,0.00,weatherlink.com 1.10,2013-06-12 16:16:00,
2013-06-12 09:31:00,59.0,51.0,30.01,SW,229,3.0,5.0,76,0.00,,,0.00,weatherlink.com 1.10,2013-06-12 16:31:00,
2013-06-12 09:46:00,60.0,52.0,30.01,South,183,3.0,5.0,75,0.00,,,0.00,weatherlink.com 1.10,2013-06-12 16:46:00,
2013-06-12 10:02:00,61.3,53.0,30.01,SSW,199,3.0,6.0,73,0.00,,,0.00,weatherlink.com 1.10,2013-06-12 17:02:00,
2013-06-12 10:17:00,61.8,52.0,30.01,SSW,204,4.0,7.0,71,0.00,,,0.00,weatherlink.com 1.10,2013-06-12 17:17:00,
2013-06-12 10:47:00,64.6,53.0,30.01,SW,234,4.0,6.0,66,0.00,,,0.00,weatherlink.com 1.10,2013-06-12 17:47:00,
2013-06-12 11:02:00,64.5,52.0,30.01,WNW,291,0.0,9.0,65,0.00,,,0.00,weatherlink.com 1.10,2013-06-12 18:02:00,
2013-06-12 11:17:00,64.3,52.0,30.02,SSW,209,4.0,7.0,64,0.00,,,0.00,weatherlink.com 1.10,2013-06-12 18:17:00,
2013-06-12 11:32:00,65.3,52.0,30.02,SSW,200,2.0,6.0,63,0.00,,,0.00,weatherlink.com 1.10,2013-06-12 18:32:00,
2013-06-12 11:47:00,65.7,53.0,30.02,SE,143,1.0,6.0,63,0.00,,,0.00,weatherlink.com 1.10,2013-06-12 18:47:00,
2013-06-12 12:02:00,65.4,52.0,30.01,SSE,152,4.0,8.0,63,0.00,,,0.00,weatherlink.com 1.10,2013-06-12 19:02:00,
2013-06-12 12:17:00,64.3,52.0,30.02,SSW,212,3.0,8.0,65,0.00,,,0.00,weatherlink.com 1.10,2013-06-12 19:17:00,
2013-06-12 12:32:00,63.0,52.0,30.02,South,173,5.0,11.0,67,0.00,,,0.00,weatherlink.com 1.10,2013-06-12 19:32:00,
2013-06-12 12:47:00,64.7,53.0,30.02,SSW,205,4.0,9.0,67,0.00,,,0.00,weatherlink.com 1.10,2013-06-12 19:47:00,
2013-06-12 13:02:00,65.2,52.0,30.02,SSW,200,7.0,8.0,63,0.00,,,0.00,weatherlink.com 1.10,2013-06-12 20:02:00,
2013-06-12 13:17:00,64.5,52.0,30.01,SSW,208,2.0,8.0,64,0.00,,,0.00,weatherlink.com 1.10,2013-06-12 20:17:00,
2013-06-12 13:32:00,65.3,52.0,30.01,South,174,7.0,7.0,63,0.00,,,0.00,weatherlink.com 1.10,2013-06-12 20:32:00,
2013-06-12 13:47:00,64.0,52.0,30.02,SW,220,3.0,10.0,65,0.00,,,0.00,weatherlink.com 1.10,2013-06-12 20:47:00,
2013-06-12 14:02:00,64.2,52.0,30.01,WSW,240,3.0,9.0,64,0.00,,,0.00,weatherlink.com 1.10,2013-06-12 21:02:00,
2013-06-12 14:17:00,64.9,51.0,30.01,SSW,209,4.0,8.0,62,0.00,,,0.00,weatherlink.com 1.10,2013-06-12 21:17:00,
2013-06-12 14:32:00,66.5,52.0,30.01,SSW,196,3.0,7.0,60,0.00,,,0.00,weatherlink.com 1.10,2013-06-12 21:32:00,
2013-06-12 14:47:00,66.6,51.0,30.01,SSW,198,6.0,9.0,57,0.00,,,0.00,weatherlink.com 1.10,2013-06-12 21:47:00,
2013-06-12 15:02:00,67.9,51.0,30.01,SSE,167,7.0,9.0,56,0.00,,,0.00,weatherlink.com 1.10,2013-06-12 22:02:00,
2013-06-12 15:17:00,68.0,51.0,30.01,SW,227,6.0,8.0,55,0.00,,,0.00,weatherlink.com 1.10,2013-06-12 22:17:00,
2013-06-12 15:32:00,67.1,51.0,30.01,South,182,5.0,7.0,57,0.00,,,0.00,weatherlink.com 1.10,2013-06-12 22:32:00,
2013-06-12 15:47:00,67.8,51.0,30.01,SSW,205,7.0,11.0,56,0.00,,,0.00,weatherlink.com 1.10,2013-06-12 22:47:00,
2013-06-12 16:02:00,68.5,52.0,30.00,SE,134,4.0,8.0,55,0.00,,,0.00,weatherlink.com 1.10,2013-06-12 23:02:00,
2013-06-12 16:17:00,67.5,51.0,30.00,SW,234,2.0,9.0,56,0.00,,,0.00,weatherlink.com 1.10,2013-06-12 23:17:00,
2013-06-12 16:32:00,66.0,51.0,30.01,SSW,201,6.0,9.0,58,0.00,,,0.00,weatherlink.com 1.10,2013-06-12 23:32:00,
2013-06-12 16:47:00,66.2,51.0,30.01,SSW,192,5.0,7.0,59,0.00,,,0.00,weatherlink.com 1.10,2013-06-12 23:47:00,
2013-06-12 17:02:00,65.2,51.0,30.01,SW,221,7.0,8.0,60,0.00,,,0.00,weatherlink.com 1.10,2013-06-13 00:02:00,
2013-06-12 17:17:00,64.9,51.0,30.01,SSW,200,5.0,8.0,61,0.00,,,0.00,weatherlink.com 1.10,2013-06-13 00:17:00,
2013-06-12 17:32:00,64.4,51.0,30.01,WSW,245,0.0,7.0,62,0.00,,,0.00,weatherlink.com 1.10,2013-06-13 00:32:00,
2013-06-12 17:47:00,66.9,51.0,30.01,SSE,151,5.0,7.0,56,0.00,,,0.00,weatherlink.com 1.10,2013-06-13 00:47:00,
2013-06-12 18:02:00,66.1,50.0,30.01,SSW,203,2.0,7.0,57,0.00,,,0.00,weatherlink.com 1.10,2013-06-13 01:02:00,
2013-06-12 18:17:00,65.6,50.0,30.00,WSW,245,1.0,5.0,58,0.00,,,0.00,weatherlink.com 1.10,2013-06-13 01:17:00,
2013-06-12 18:32:00,64.4,50.0,30.00,SW,220,0.0,6.0,60,0.00,,,0.00,weatherlink.com 1.10,2013-06-13 01:32:00,
2013-06-12 18:47:00,63.7,49.0,30.01,SSW,209,3.0,8.0,60,0.00,,,0.00,weatherlink.com 1.10,2013-06-13 01:47:00,
2013-06-12 19:02:00,62.6,49.0,30.02,SSW,206,1.0,5.0,62,0.00,,,0.00,weatherlink.com 1.10,2013-06-13 02:02:00,
2013-06-12 19:17:00,61.6,49.0,30.02,South,190,0.0,4.0,64,0.00,,,0.00,weatherlink.com 1.10,2013-06-13 02:17:00,
2013-06-12 19:32:00,60.1,49.0,30.03,SSE,164,0.0,2.0,67,0.00,,,0.00,weatherlink.com 1.10,2013-06-13 02:32:00,
2013-06-12 19:47:00,59.0,48.0,30.03,NNW,331,0.0,3.0,68,0.00,,,0.00,weatherlink.com 1.10,2013-06-13 02:47:00,
2013-06-12 20:02:00,57.9,48.0,30.03,ESE,112,0.0,1.0,70,0.00,,,0.00,weatherlink.com 1.10,2013-06-13 03:02:00,
2013-06-12 20:17:00,56.8,48.0,30.03,East,91,0.0,1.0,72,0.00,,,0.00,weatherlink.com 1.10,2013-06-13 03:17:00,
2013-06-12 20:32:00,55.5,47.0,30.03,ESE,117,0.0,2.0,74,0.00,,,0.00,weatherlink.com 1.10,2013-06-13 03:32:00,
2013-06-12 20:47:00,54.6,47.0,30.03,NNE,21,0.0,1.0,76,0.00,,,0.00,weatherlink.com 1.10,2013-06-13 03:47:00,
2013-06-12 21:02:00,53.7,47.0,30.04,NE,42,0.0,1.0,78,0.00,,,0.00,weatherlink.com 1.10,2013-06-13 04:02:00,
2013-06-12 21:17:00,53.1,47.0,30.04,NE,41,0.0,0.0,79,0.00,,,0.00,weatherlink.com 1.10,2013-06-13 04:17:00,
2013-06-12 21:32:00,52.4,46.0,30.05,NNE,31,0.0,1.0,80,0.00,,,0.00,weatherlink.com 1.10,2013-06-13 04:32:00,
2013-06-12 21:47:00,52.0,46.0,30.04,NNE,28,0.0,2.0,81,0.00,,,0.00,weatherlink.com 1.10,2013-06-13 04:47:00,
2013-06-12 22:02:00,52.1,46.0,30.05,NNE,19,0.0,1.0,81,0.00,,,0.00,weatherlink.com 1.10,2013-06-13 05:02:00,
2013-06-12 22:17:00,52.1,46.0,30.05,NNE,19,0.0,1.0,80,0.00,,,0.00,weatherlink.com 1.10,2013-06-13 05:17:00,
2013-06-12 22:32:00,51.7,46.0,30.05,NNE,19,0.0,0.0,80,0.00,,,0.00,weatherlink.com 1.10,2013-06-13 05:32:00,
2013-06-12 22:47:00,51.7,45.0,30.05,NNE,19,0.0,0.0,79,0.00,,,0.00,weatherlink.com 1.10,2013-06-13 05:47:00,
2013-06-12 23:03:00,51.4,45.0,30.05,NNE,19,0.0,0.0,79,0.00,,,0.00,weatherlink.com 1.10,2013-06-13 06:03:00,
2013-06-12 23:23:00,51.7,45.0,30.06,NNE,19,0.0,0.0,79,0.00,,,0.00,weatherlink.com 1.10,2013-06-13 06:23:00,
2013-06-12 23:33:00,51.7,45.0,30.06,NNE,19,0.0,0.0,79,0.00,,,0.00,weatherlink.com 1.10,2013-06-13 06:33:00,
2013-06-12 23:48:00,51.2,45.0,30.06,NNE,19,0.0,0.0,79,0.00,,,0.00,weatherlink.com 1.10,2013-06-13 06:48:00,